NEODyS-2

Near Earth Objects - Dynamic Site
NEODyS ∴ Observatories ∴ Site 691 ∴ Obs & residuals
Contact »
691  ▹ 
OBSERVATIONS AND RESIDUALS

691-Steward Observatory, Kitt Peak-Spacewatch

Detections | Residuals | Detections & Residuals

[1-200] [201-400] [401-600] [601-800] [801-1000] [1001-1200] [1201-1400] [1401-1600] [1601-1800] [1801-2000] [2001-2200] [2201-2400] [2401-2600] [2601-2800] [2801-3000] [3001-3200] [3201-3400] [3401-3600] [3601-3800] [3801-4000] [4001-4200] [4201-4400] [4401-4600] [4601-4800] [4801-5000] [5001-5200] [5201-5400] [5401-5600] [5601-5800] [5801-6000] [6001-6200] [6201-6400] [6401-6600] [6601-6800] [6801-7000] [7001-7200] [7201-7400] [7401-7600] [7601-7800] [7801-8000] [8001-8200] [8201-8400] [8401-8600] [8601-8800] [8801-9000] [9001-9200] [9201-9400] [9401-9600] [9601-9800] [9801-10000] [10001-10200] [10201-10400] [10401-10600] [10601-10800] [10801-11000] [11001-11200] [11201-11400] [11401-11600] [11601-11800] [11801-12000] [12001-12200] [12201-12400] [12401-12600] [12601-12800] [12801-13000] [13001-13200] [13201-13400] [13401-13600] [13601-13800] [13801-14000] [14001-14200] [14201-14400] [14401-14600] [14601-14800] [14801-15000] [15001-15200] [15201-15400] [15401-15600] [15601-15800] [15801-16000] [16001-16200] [16201-16400] [16401-16600] [16601-16800] [16801-17000] [17001-17200] [17201-17400] [17401-17600] [17601-17800] [17801-18000] [18001-18200] [18201-18400] [18401-18600] [18601-18800] [18801-19000] [19001-19200] [19201-19400] [19401-19600] [19601-19800] [19801-20000] [20001-20200] [20201-20400] [20401-20600] [20601-20800] [20801-21000] [21001-21200] [21201-21400] [21401-21600] [21601-21800] [21801-22000] [22001-22200] [22201-22400] [22401-22600] [22601-22800] [22801-23000] [23001-23200] [23201-23400] [23401-23600] [23601-23800] [23801-24000] [24001-24200] [24201-24400] [24401-24600] [24601-24800] [24801-25000] [25001-25200] [25201-25400] [25401-25600] [25601-25800] [25801-26000] [26001-26200] [26201-26400] [26401-26600] [26601-26800] [26801-27000] [27001-27200] [27201-27400] [27401-27600] [27601-27800] [27801-28000] [28001-28200] [28201-28400] [28401-28600] [28601-28800] [28801-29000] [29001-29200] [29201-29400] [29401-29600] [29601-29800] [29801-30000] [30001-30200] [30201-30400] [30401-30600] [30601-30800] [30801-31000] [31001-31200] [31201-31400] [31401-31600] [31601-31800] [31801-32000] [32001-32200] [32201-32400] [32401-32600] [32601-32800] [32801-33000] [33001-33200] [33201-33400] [33401-33600] [33601-33800] [33801-34000] [34001-34200] [34201-34400] [34401-34600] [34601-34800] [34801-35000] [35001-35200] [35201-35400] [35401-35600] [35601-35800] [35801-36000] [36001-36200] [36201-36400] [36401-36600] [36601-36800] [36801-37000] [37001-37200] [37201-37400] [37401-37600] [37601-37800] [37801-38000] [38001-38200] [38201-38400] [38401-38600] [38601-38800] [38801-39000] [39001-39200] [39201-39400] [39401-39600] [39601-39800] [39801-40000] [40001-40200] [40201-40400] [40401-40600] [40601-40800] [40801-41000] [41001-41200] [41201-41400] [41401-41600] [41601-41800] [41801-42000] [42001-42200] [42201-42400] [42401-42600] [42601-42800] [42801-43000] [43001-43200] [43201-43400] [43401-43600] [43601-43800] [43801-44000] [44001-44200] [44201-44400] [44401-44600] [44601-44800] [44801-45000] [45001-45200] [45201-45400] [45401-45600] [45601-45800] [45801-46000] [46001-46200] [46201-46400] [46401-46600] [46601-46800] [46801-47000] [47001-47200] [47201-47400] [47401-47600] [47601-47800] [47801-48000] [48001-48200] [48201-48400] [48401-48600] [48601-48800] [48801-49000] [49001-49200] [49201-49400] [49401-49600] [49601-49800] [49801-50000] [50001-50200] [50201-50388]

Designation T Tech N Date Right Ascension Declination Apparent Magnitude Star Catalog Site code χ Used A Used M
yr-mo-day precision hr:min:sec precision rms F bias residual deg min sec precision rms F bias residual mag/col rms residual
2017XV2 O C 2018-02-10.25321 1.000E-05 08:37:00.650 1.500E-01 0.500 F 0.043 -0.089 +29° 33' 34.00" 1.000E-01 0.500 F 0.242 0.046 20.1 V 0.70 -0.18 o 691 0.20 Yes Yes
2017XV2 O C 2018-02-10.26710 1.000E-05 08:37:01.160 1.500E-01 0.500 F 0.043 -0.195 +29° 33' 30.30" 1.000E-01 0.500 F 0.242 0.081 20.2 V 0.70 -0.08 o 691 0.43 Yes Yes
2018CK O C K 2018-02-10.28275 1.000E-05 09:20:02.720 1.500E-01 0.500 F 0.184 0.369 +08° 42' 25.00" 1.000E-01 0.500 F 0.184 0.137 o 691 0.79 Yes No
2008CJ70 O C 2018-02-10.28275 1.000E-05 09:22:23.900 1.500E-01 0.500 F 0.110 -0.433 +09° 15' 14.00" 1.000E-01 0.500 F 0.273 0.602 20.2 V 0.70 0.26 o 691 1.50 Yes Yes
2008CJ70 O C 2018-02-10.30264 1.000E-05 09:22:22.560 1.500E-01 0.500 F 0.110 -0.263 +09° 16' 15.20" 1.000E-01 0.500 F 0.273 0.238 20.0 V 0.70 0.06 o 691 0.72 Yes Yes
2018CK O C K 2018-02-10.32256 1.000E-05 09:20:03.280 1.500E-01 0.500 F 0.184 -0.217 +08° 42' 02.50" 1.000E-01 0.500 F 0.184 -0.450 o 691 1.00 Yes No
2008CJ70 O C 2018-02-10.32256 1.000E-05 09:22:21.220 1.500E-01 0.500 F 0.110 -0.038 +09° 17' 17.50" 1.000E-01 0.500 F 0.273 0.914 20.3 V 0.70 0.36 o 691 1.84 Yes Yes
2018BJ7 O C K 2018-02-10.34514 1.000E-05 10:34:23.540 1.500E-01 0.500 F 0.058 0.660 +20° 39' 11.50" 1.000E-01 0.500 F 0.241 0.049 o 691 1.36 Yes No
2018BJ7 O C K 2018-02-10.34841 1.000E-05 10:34:25.630 1.500E-01 0.500 F 0.058 0.535 +20° 39' 14.20" 1.000E-01 0.500 F 0.241 0.232 o 691 1.19 Yes No
2018BJ7 O C K 2018-02-10.35169 1.000E-05 10:34:27.720 1.500E-01 0.500 F 0.058 0.311 +20° 39' 16.60" 1.000E-01 0.500 F 0.241 0.121 o 691 0.68 Yes No
2008TN26 O C K 2018-02-10.36062 1.000E-05 11:11:47.940 1.500E-01 0.500 F 0.189 0.042 -17° 50' 13.10" 1.000E-01 0.500 F -0.132 -0.006 o 691 0.09 Yes No
2008TN26 O C K 2018-02-10.36736 1.000E-05 11:11:47.600 1.500E-01 0.500 F 0.189 -0.106 -17° 50' 20.00" 1.000E-01 0.500 F -0.132 -0.179 o 691 0.44 Yes No
2008TN26 O C K 2018-02-10.37411 1.000E-05 11:11:47.270 1.500E-01 0.500 F 0.189 -0.100 -17° 50' 26.70" 1.000E-01 0.500 F -0.132 -0.148 o 691 0.38 Yes No
2016CO246 O C K 2018-02-10.38666 1.000E-05 11:35:47.250 1.500E-01 0.500 F 0.015 0.220 +15° 53' 02.50" 1.000E-01 0.500 F 0.256 -0.292 o 691 0.74 Yes No
2016CO246 O C K 2018-02-10.39103 1.000E-05 11:35:48.270 1.500E-01 0.500 F 0.015 0.197 +15° 53' 37.50" 1.000E-01 0.500 F 0.256 0.312 o 691 0.74 Yes No
2009CR5 O C K 2018-02-10.39897 1.000E-05 12:55:14.580 1.500E-01 0.500 F 0.264 0.089 -12° 07' 57.00" 1.000E-01 0.500 F 0.057 0.179 o 691 0.40 Yes No
2009CR5 O C K 2018-02-10.40711 1.000E-05 12:55:15.440 1.500E-01 0.500 F 0.264 -0.246 -12° 08' 14.60" 1.000E-01 0.500 F 0.057 -0.004 o 691 0.51 Yes No
1999FP19 O C K 2018-02-10.42696 1.000E-05 13:20:33.680 1.500E-01 0.500 F 0.362 0.364 -08° 06' 11.80" 1.000E-01 0.500 F 0.039 0.123 o 691 0.80 Yes No
1999FP19 O C K 2018-02-10.43829 1.000E-05 13:20:34.680 1.500E-01 0.500 F 0.362 -0.085 -08° 06' 30.90" 1.000E-01 0.500 F 0.039 -0.092 o 691 0.26 Yes No
1999FP19 O C K 2018-02-10.44962 1.000E-05 13:20:35.730 1.500E-01 0.500 F 0.362 0.220 -08° 06' 49.60" 1.000E-01 0.500 F 0.039 0.092 o 691 0.49 Yes No
2018AL13 O C K 2018-02-10.49926 1.000E-05 14:18:13.210 1.500E-01 0.500 F 0.080 -0.040 -00° 31' 46.50" 1.000E-01 0.500 F 0.248 -0.108 o 691 0.23 Yes No
2018AL13 O C K 2018-02-10.50650 1.000E-05 14:18:15.660 1.500E-01 0.500 F 0.080 0.156 -00° 31' 51.50" 1.000E-01 0.500 F 0.248 0.139 o 691 0.42 Yes No
2018AF4 O C K 2018-02-11.50331 1.000E-05 13:25:06.590 1.500E-01 0.500 F 0.144 -0.005 +28° 34' 50.60" 1.000E-01 0.500 F 0.184 0.129 o 691 0.26 Yes No
2018AF4 O C K 2018-02-11.50805 1.000E-05 13:25:06.640 1.500E-01 0.500 F 0.144 -0.126 +28° 34' 31.30" 1.000E-01 0.500 F 0.184 0.242 o 691 0.56 Yes No
2018AF4 O C K 2018-02-11.51279 1.000E-05 13:25:06.710 1.500E-01 0.500 F 0.144 0.007 +28° 34' 11.60" 1.000E-01 0.500 F 0.184 -0.011 o 691 0.03 Yes No
2018CW O C K 2018-02-12.09725 1.000E-05 04:17:27.130 1.500E-01 0.500 F -0.176 0.353 +18° 44' 48.20" 1.000E-01 0.500 F 0.329 -0.314 o 691 1.00 Yes No
2018CW O C K 2018-02-12.10207 1.000E-05 04:17:27.070 1.500E-01 0.500 F -0.176 -0.422 +18° 45' 22.00" 1.000E-01 0.500 F 0.329 0.681 o 691 1.69 Yes No
2018CW O C K 2018-02-12.10690 1.000E-05 04:17:27.070 1.500E-01 0.500 F -0.176 -0.348 +18° 45' 53.20" 1.000E-01 0.500 F 0.329 -0.977 o 691 2.15 Yes No
2014BR8 O C K 2018-02-12.11398 1.000E-05 03:45:33.210 1.500E-01 0.500 F -0.098 -0.224 +17° 31' 38.00" 1.000E-01 0.500 F 0.295 -0.056 o 691 0.49 Yes No
2014BR8 O C K 2018-02-12.12371 1.000E-05 03:45:37.120 1.500E-01 0.500 F -0.098 -0.621 +17° 31' 15.60" 1.000E-01 0.500 F 0.295 -0.168 o 691 1.36 Yes No
2018CR3 O C H 2018-02-12.18377 1.000E-05 07:29:54.120 1.500E-01 0.500 F 0.027 -1.078 +06° 23' 47.90" 1.000E-01 0.500 F 0.041 -0.384 o 691 2.37 Yes No
2018CR3 O C H 2018-02-12.18486 1.000E-05 07:29:49.960 1.500E-01 0.500 F 0.027 -0.010 +06° 23' 45.30" 1.000E-01 0.500 F 0.041 0.055 o 691 0.11 Yes No
2018CR3 O C H 2018-02-12.18595 1.000E-05 07:29:45.700 1.500E-01 0.500 F 0.027 -0.383 +06° 23' 42.30" 1.000E-01 0.500 F 0.041 0.100 o 691 0.82 Yes No
2018CQ3 O C H 2018-02-12.20473 1.000E-05 07:58:36.490 1.500E-01 0.500 F 0.033 0.091 +23° 38' 38.00" 1.000E-01 0.500 F 0.242 -0.487 o 691 1.00 Yes No
2018CQ3 O C H 2018-02-12.21258 1.000E-05 07:58:38.860 1.500E-01 0.500 F 0.033 -0.089 +23° 39' 08.80" 1.000E-01 0.500 F 0.242 -0.012 o 691 0.18 Yes No
2016CW31 O C 2018-02-23.14037 1.000E-05 09:33:27.420 1.500E-01 0.750 F 0.154 -0.078 -05° 18' 39.90" 1.000E-01 0.750 F -0.063 -0.320 19.5 V 0.70 0.44 o 691 0.45 Yes Yes
2016CW31 O C 2018-02-23.14169 1.000E-05 09:33:27.130 1.500E-01 0.750 F 0.154 0.087 -05° 18' 47.70" 1.000E-01 0.750 F -0.063 -0.350 19.4 V 0.70 0.34 o 691 0.49 Yes Yes
2016CW31 O C 2018-02-23.14302 1.000E-05 09:33:26.820 1.500E-01 0.750 F 0.154 -0.012 -05° 18' 55.10" 1.000E-01 0.750 F -0.063 0.078 19.1 V 0.70 0.04 o 691 0.11 Yes Yes
2018DH1 O C H 2018-02-23.20840 1.000E-05 11:26:36.350 1.500E-01 0.500 F 0.245 -0.056 +05° 26' 40.30" 1.000E-01 0.500 F 0.304 -0.005 19.7 R 0.70 0.36 o 691 0.11 Yes Yes
2018DH1 O C H 2018-02-23.21221 1.000E-05 11:26:36.480 1.500E-01 0.500 F 0.245 0.255 +05° 26' 41.80" 1.000E-01 0.500 F 0.304 0.038 19.6 R 0.70 0.26 o 691 0.52 Yes Yes
2018DH1 O C H 2018-02-23.21603 1.000E-05 11:26:36.570 1.500E-01 0.500 F 0.245 -0.024 +05° 26' 43.00" 1.000E-01 0.500 F 0.304 -0.223 19.5 R 0.70 0.16 o 691 0.45 Yes Yes
2016CW31 O C 2018-02-23.38285 1.000E-05 09:32:30.900 1.500E-01 0.750 F 0.154 -0.258 -05° 42' 24.50" 1.000E-01 0.750 F -0.063 0.143 19.2 V 0.70 0.13 o 691 0.40 Yes Yes
2016CW31 O C 2018-02-23.38440 1.000E-05 09:32:30.540 1.500E-01 0.750 F 0.154 -0.268 -05° 42' 33.80" 1.000E-01 0.750 F -0.063 -0.066 19.2 V 0.70 0.13 o 691 0.37 Yes Yes
2016CW31 O C 2018-02-23.38596 1.000E-05 09:32:30.210 1.500E-01 0.750 F 0.154 0.203 -05° 42' 42.70" 1.000E-01 0.750 F -0.063 0.184 19.2 V 0.70 0.13 o 691 0.37 Yes Yes
2016CW31 O C 2018-02-23.40144 1.000E-05 09:32:26.580 1.500E-01 0.750 F 0.050 -0.460 -05° 44' 13.50" 1.000E-01 0.750 F -0.057 0.158 19.3 V 0.70 0.22 o 691 0.66 Yes Yes
2016CW31 O C 2018-02-23.40288 1.000E-05 09:32:26.280 1.500E-01 0.750 F 0.050 0.019 -05° 44' 22.10" 1.000E-01 0.750 F -0.057 0.002 19.3 V 0.70 0.22 o 691 0.03 Yes Yes
2016CW31 O C 2018-02-23.40432 1.000E-05 09:32:25.960 1.500E-01 0.750 F 0.050 0.197 -05° 44' 30.50" 1.000E-01 0.750 F -0.057 0.045 19.9 V 0.70 0.82 o 691 0.27 Yes Yes
2018BP5 O C H 2018-02-23.41252 1.000E-05 12:40:37.160 1.500E-01 0.500 F 0.192 -0.327 +02° 23' 52.80" 1.000E-01 0.500 F 0.103 0.552 20.4 R 0.70 0.43 o 691 1.32 Yes Yes
2018BP5 O C H 2018-02-23.41453 1.000E-05 12:40:36.840 1.500E-01 0.500 F 0.192 -0.259 +02° 23' 48.90" 1.000E-01 0.500 F 0.103 0.105 20.2 R 0.70 0.23 o 691 0.58 Yes Yes
2003FS2 O C H 2018-02-23.43918 1.000E-05 14:31:13.950 1.500E-01 0.500 F 0.267 -0.078 -22° 52' 11.90" 1.000E-01 0.500 F 0.048 0.322 20.1 R 0.70 0.63 o 691 0.67 Yes Yes
2003FS2 O C H 2018-02-23.44143 1.000E-05 14:31:14.530 1.500E-01 0.500 F 0.267 0.410 -22° 52' 11.90" 1.000E-01 0.500 F 0.048 0.137 20.3 R 0.70 0.83 o 691 0.90 Yes Yes
2003FS2 O C H 2018-02-23.44368 1.000E-05 14:31:15.010 1.500E-01 0.500 F 0.267 -0.484 -22° 52' 12.50" 1.000E-01 0.500 F 0.048 -0.649 20.7 R 0.70 1.23 o 691 1.65 Yes Yes
2018AL13 O C K 2018-02-23.44958 1.000E-05 15:39:01.910 1.500E-01 0.500 F 0.018 0.298 -03° 06' 05.80" 1.000E-01 0.500 F 0.124 -0.353 19.7 R 0.70 -0.68 o 691 0.93 Yes Yes
2018AL13 O C K 2018-02-23.45246 1.000E-05 15:39:03.060 1.500E-01 0.500 F 0.018 0.764 -03° 06' 07.80" 1.000E-01 0.500 F 0.124 -0.378 20.1 R 0.70 -0.28 o 691 1.72 Yes Yes
2018AL13 O C K 2018-02-23.45534 1.000E-05 15:39:04.110 1.500E-01 0.500 F 0.018 -0.265 -03° 06' 09.70" 1.000E-01 0.500 F 0.124 -0.305 19.7 R 0.70 -0.68 o 691 0.81 Yes Yes
2018BL3 O C K 2018-02-23.47076 1.000E-05 16:30:13.640 1.500E-01 0.500 F 0.174 -0.672 -03° 56' 40.20" 1.000E-01 0.500 F 0.242 -0.244 o 691 1.44 Yes No
2018BL3 O C K 2018-02-23.47854 1.000E-05 16:30:16.240 1.500E-01 0.500 F 0.174 0.725 -03° 56' 33.70" 1.000E-01 0.500 F 0.242 -0.315 o 691 1.59 Yes No
2018CY O C K 2018-03-06.14137 1.000E-05 07:43:20.870 1.500E-01 0.500 F 0.036 -0.080 +04° 22' 27.20" 1.000E-01 0.500 F 0.029 -0.133 o 691 0.32 Yes No
2018CY O C K 2018-03-06.14863 1.000E-05 07:43:19.210 1.500E-01 0.500 F 0.036 0.227 +04° 22' 32.50" 1.000E-01 0.500 F 0.029 -0.142 o 691 0.55 Yes No
2018CY O C K 2018-03-06.15585 1.000E-05 07:43:17.520 1.500E-01 0.500 F 0.036 -0.035 +04° 22' 37.90" 1.000E-01 0.500 F 0.029 -0.015 o 691 0.08 Yes No
1999FN19 O C K 2018-03-06.16669 1.000E-05 09:56:58.170 1.500E-01 0.500 F 0.108 -0.010 +05° 47' 49.20" 1.000E-01 0.500 F 0.226 -0.204 o 691 0.41 Yes No
1999FN19 O C K 2018-03-06.18225 1.000E-05 09:56:56.740 1.500E-01 0.500 F 0.108 -0.223 +05° 48' 00.10" 1.000E-01 0.500 F 0.226 0.289 o 691 0.73 Yes No
1999FN19 O C K 2018-03-06.19787 1.000E-05 09:56:55.320 1.500E-01 0.500 F 0.108 -0.019 +05° 48' 10.40" 1.000E-01 0.500 F 0.226 0.165 o 691 0.33 Yes No
2018DX1 O C K 2018-03-06.21570 1.000E-05 10:16:23.400 1.500E-01 0.500 F 0.066 -0.498 +12° 49' 05.40" 1.000E-01 0.500 F 0.248 0.143 o 691 1.05 Yes No
2018DX1 O C K 2018-03-06.22224 1.000E-05 10:16:21.180 1.500E-01 0.500 F 0.066 -0.095 +12° 48' 52.10" 1.000E-01 0.500 F 0.248 -0.011 o 691 0.20 Yes No
2018DX1 O C K 2018-03-06.22878 1.000E-05 10:16:18.910 1.500E-01 0.500 F 0.066 -0.387 +12° 48' 38.80" 1.000E-01 0.500 F 0.248 -0.141 o 691 0.84 Yes No
2018BQ O C K 2018-03-06.23844 1.000E-05 11:05:14.130 1.500E-01 0.500 F 0.080 1.275 -16° 04' 20.80" 1.000E-01 0.500 F 0.031 -0.817 o 691 3.10 Yes No
2018DH1 O C 2018-03-06.24911 1.000E-05 11:34:30.270 1.500E-01 0.500 F 0.166 -0.193 +07° 23' 17.20" 1.000E-01 0.500 F 0.244 0.001 o 691 0.39 Yes No
2018BQ O C K 2018-03-06.25127 1.000E-05 11:05:14.690 1.500E-01 0.500 F 0.080 -0.249 -16° 04' 06.60" 1.000E-01 0.500 F 0.031 0.060 o 691 0.53 Yes No
2018DH1 O C 2018-03-06.26189 1.000E-05 11:34:30.820 1.500E-01 0.500 F 0.166 -0.279 +07° 23' 30.30" 1.000E-01 0.500 F 0.244 0.052 o 691 0.57 Yes No
2018BQ O C K 2018-03-06.26407 1.000E-05 11:05:15.340 1.500E-01 0.500 F 0.080 -0.211 -16° 03' 53.30" 1.000E-01 0.500 F 0.031 -0.080 o 691 0.47 Yes No
2018DH1 O C 2018-03-06.27467 1.000E-05 11:34:31.370 1.500E-01 0.500 F 0.166 -0.254 +07° 23' 43.20" 1.000E-01 0.500 F 0.244 -0.085 o 691 0.54 Yes No
2015DP155 O C K 2018-03-06.27845 1.000E-05 12:17:16.620 1.500E-01 0.500 F 0.152 0.036 +31° 27' 18.90" 1.000E-01 0.500 F 0.176 -0.041 o 691 0.11 Yes No
2015DP155 O C K 2018-03-06.28260 1.000E-05 12:17:16.640 1.500E-01 0.500 F 0.152 0.152 +31° 27' 27.90" 1.000E-01 0.500 F 0.176 0.148 o 691 0.43 Yes No
2015DP155 O C K 2018-03-06.28675 1.000E-05 12:17:16.630 1.500E-01 0.500 F 0.152 -0.103 +31° 27' 36.90" 1.000E-01 0.500 F 0.176 0.347 o 691 0.73 Yes No
2004EM20 O C K 2018-03-06.34320 1.000E-05 13:10:34.620 1.500E-01 0.500 F 0.286 -0.164 -19° 28' 03.70" 1.000E-01 0.500 F -0.151 0.015 o 691 0.33 Yes No
2004EM20 O C K 2018-03-06.34682 1.000E-05 13:10:34.500 1.500E-01 0.500 F 0.286 -0.098 -19° 28' 22.20" 1.000E-01 0.500 F -0.151 0.044 o 691 0.22 Yes No
2004EM20 O C K 2018-03-06.35044 1.000E-05 13:10:34.350 1.500E-01 0.500 F 0.286 -0.449 -19° 28' 40.70" 1.000E-01 0.500 F -0.151 0.074 o 691 0.91 Yes No
1999FN19 O C 2018-03-07.15313 1.000E-05 09:55:40.380 1.500E-01 0.500 F 0.127 -0.601 +05° 58' 50.10" 1.000E-01 0.500 F 0.234 0.055 20.1 V 0.70 -0.23 o 691 1.21 Yes Yes
2018DX1 O C K 2018-03-07.15853 1.000E-05 10:11:29.900 1.500E-01 0.500 F 0.112 -0.311 +12° 16' 52.00" 1.000E-01 0.500 F 0.245 -0.232 o 691 0.79 Yes No
1999FN19 O C 2018-03-07.17395 1.000E-05 09:55:38.480 1.500E-01 0.500 F 0.127 -0.452 +05° 59' 04.80" 1.000E-01 0.500 F 0.234 0.221 20.1 V 0.70 -0.23 o 691 1.01 Yes Yes
2018DX1 O C K 2018-03-07.17934 1.000E-05 10:11:23.020 1.500E-01 0.500 F 0.112 -0.388 +12° 16' 10.40" 1.000E-01 0.500 F 0.245 -0.388 o 691 1.12 Yes No
1999FN19 O C 2018-03-07.19492 1.000E-05 09:55:36.530 1.500E-01 0.500 F 0.127 -0.485 +05° 59' 19.70" 1.000E-01 0.500 F 0.234 0.523 19.8 V 0.70 -0.53 o 691 1.43 Yes Yes
2018DX1 O C K 2018-03-07.20031 1.000E-05 10:11:16.060 1.500E-01 0.500 F 0.112 -0.255 +12° 15' 28.90" 1.000E-01 0.500 F 0.245 0.076 o 691 0.54 Yes No
2018DY1 O C K 2018-03-07.24281 1.000E-05 12:39:47.880 1.500E-01 0.500 F 0.071 0.788 +15° 07' 45.00" 1.000E-01 0.500 F 0.195 0.031 o 691 1.61 Yes No
2018DY1 O C K 2018-03-07.25408 1.000E-05 12:39:52.250 1.500E-01 0.500 F 0.071 0.826 +15° 07' 28.30" 1.000E-01 0.500 F 0.195 -0.127 o 691 1.70 Yes No
2018DY1 O C K 2018-03-07.26538 1.000E-05 12:39:56.580 1.500E-01 0.500 F 0.071 0.279 +15° 07' 11.30" 1.000E-01 0.500 F 0.195 -0.471 o 691 1.11 Yes No
2018DH1 O C 2018-03-07.27613 1.000E-05 11:35:32.310 1.500E-01 0.500 F 0.108 -0.183 +07° 41' 22.60" 1.000E-01 0.500 F 0.181 -0.024 18.1 V 0.70 -0.05 o 691 0.37 Yes Yes
2018DH1 O C 2018-03-07.28547 1.000E-05 11:35:32.740 1.500E-01 0.500 F 0.108 -0.266 +07° 41' 33.20" 1.000E-01 0.500 F 0.181 0.086 18.1 V 0.70 -0.05 o 691 0.56 Yes Yes
2018DH1 O C 2018-03-07.29481 1.000E-05 11:35:33.170 1.500E-01 0.500 F 0.108 -0.309 +07° 41' 43.50" 1.000E-01 0.500 F 0.181 -0.095 18.2 V 0.70 0.05 o 691 0.65 Yes Yes
2018BQ O C K 2018-03-07.30753 1.000E-05 11:06:41.340 1.500E-01 0.500 F 0.089 0.046 -15° 44' 42.40" 1.000E-01 0.500 F 0.028 0.057 o 691 0.15 Yes No
2018BQ O C K 2018-03-07.32322 1.000E-05 11:06:42.040 1.500E-01 0.500 F 0.089 0.262 -15° 44' 25.10" 1.000E-01 0.500 F 0.028 0.088 o 691 0.58 Yes No
2018BQ O C K 2018-03-07.33880 1.000E-05 11:06:42.720 1.500E-01 0.500 F 0.089 0.228 -15° 44' 07.40" 1.000E-01 0.500 F 0.028 0.415 o 691 0.99 Yes No
2018AF4 O C K 2018-03-07.35770 1.000E-05 13:15:05.980 1.500E-01 0.500 F 0.201 -0.213 -06° 10' 17.50" 1.000E-01 0.500 F 0.044 0.024 o 691 0.45 Yes No
2018AF4 O C K 2018-03-07.36752 1.000E-05 13:15:04.750 1.500E-01 0.500 F 0.201 -0.144 -06° 11' 13.20" 1.000E-01 0.500 F 0.044 0.044 o 691 0.31 Yes No
2017BD29 O C K 2018-03-07.47386 1.000E-05 14:59:39.980 1.500E-01 0.500 F 0.047 -0.098 +11° 33' 03.00" 1.000E-01 0.500 F 0.145 -0.051 o 691 0.22 Yes No
2017BD29 O C K 2018-03-07.48912 1.000E-05 14:59:40.380 1.500E-01 0.500 F 0.047 0.001 +11° 33' 24.20" 1.000E-01 0.500 F 0.145 -0.121 o 691 0.24 Yes No
2018CY O C K 2018-03-09.25922 1.000E-05 07:32:25.370 1.500E-01 0.500 F 0.039 0.065 +05° 01' 33.30" 1.000E-01 0.500 F -0.043 0.010 o 691 0.14 Yes No
2018CR1 O C K 2018-03-09.26558 1.000E-05 08:08:09.190 1.500E-01 0.500 F -0.077 -0.273 +12° 48' 48.40" 1.000E-01 0.500 F 0.168 -0.392 o 691 0.97 Yes No
2018CY O C K 2018-03-09.26954 1.000E-05 07:32:23.030 1.500E-01 0.500 F 0.039 -0.125 +05° 01' 41.30" 1.000E-01 0.500 F -0.043 0.171 o 691 0.43 Yes No
2018CR1 O C K 2018-03-09.27589 1.000E-05 08:08:09.100 1.500E-01 0.500 F -0.077 -1.060 +12° 48' 16.60" 1.000E-01 0.500 F 0.168 -0.954 o 691 2.89 Yes No
2018CY O C K 2018-03-09.27984 1.000E-05 07:32:20.730 1.500E-01 0.500 F 0.039 0.076 +05° 01' 49.00" 1.000E-01 0.500 F -0.043 0.061 o 691 0.20 Yes No
2018CR1 O C K 2018-03-09.28620 1.000E-05 08:08:09.110 1.500E-01 0.500 F -0.077 -0.420 +12° 47' 46.40" 1.000E-01 0.500 F 0.168 0.081 o 691 0.86 Yes No
1999FN19 O C 2018-03-09.29434 1.000E-05 09:52:46.440 1.500E-01 0.500 F 0.127 -0.699 +06° 24' 19.10" 1.000E-01 0.500 F 0.234 -0.192 20.0 V 0.70 -0.30 o 691 1.45 Yes Yes
2018EA1 O C K 2018-03-09.29564 1.000E-05 10:21:23.450 1.500E-01 0.500 F 0.078 -0.398 +14° 30' 10.80" 1.000E-01 0.500 F 0.147 -0.106 19.7 R 0.70 -1.08 o 691 0.83 Yes Yes
1999FN19 O C 2018-03-09.30332 1.000E-05 09:52:45.590 1.500E-01 0.500 F 0.127 -0.438 +06° 24' 25.90" 1.000E-01 0.500 F 0.234 -0.012 20.8 V 0.70 0.50 o 691 0.88 Yes Yes
2018EA1 O C K 2018-03-09.30461 1.000E-05 10:21:21.650 1.500E-01 0.500 F 0.078 0.037 +14° 30' 11.70" 1.000E-01 0.500 F 0.147 0.059 o 691 0.14 Yes No
1999FN19 O C 2018-03-09.31209 1.000E-05 09:52:44.750 1.500E-01 0.500 F 0.127 -0.360 +06° 24' 32.10" 1.000E-01 0.500 F 0.234 -0.267 20.4 V 0.70 0.10 o 691 0.90 Yes Yes
2018AJ12 O C K 2018-03-09.33413 1.000E-05 10:16:27.490 1.500E-01 0.500 F 0.000 -0.626 +29° 13' 33.50" 1.000E-01 0.500 F 0.332 0.096 o 691 1.28 Yes No
2018AJ12 O C K 2018-03-09.35679 1.000E-05 10:16:25.550 1.500E-01 0.500 F 0.000 -0.713 +29° 13' 35.80" 1.000E-01 0.500 F 0.332 -0.367 o 691 1.62 Yes No
2018AJ12 O C K 2018-03-09.37900 1.000E-05 10:16:23.700 1.500E-01 0.500 F 0.000 -0.197 +29° 13' 38.60" 1.000E-01 0.500 F 0.332 -0.216 o 691 0.59 Yes No
2018DH1 O C H 2018-03-09.45344 1.000E-05 11:38:02.380 1.500E-01 0.500 F 0.086 -0.065 +08° 26' 29.00" 1.000E-01 0.500 F 0.157 0.085 17.4 R 0.70 -0.05 o 691 0.21 Yes Yes
2015XE352 O C 2018-03-09.45502 1.000E-05 11:49:01.170 1.500E-01 0.500 F 0.114 -0.111 +10° 46' 18.40" 1.000E-01 0.500 F 0.180 0.093 19.2 V 0.70 0.35 o 691 0.29 Yes Yes
2018DW3 O C K 2018-03-09.45502 1.000E-05 11:50:37.950 1.500E-01 0.500 F 0.155 -0.263 +11° 14' 37.60" 1.000E-01 0.500 F 0.246 -0.090 o 691 0.56 Yes No
2018BS1 O C K 2018-03-09.45817 1.000E-05 12:28:24.930 1.500E-01 0.500 F 0.182 -0.170 +21° 04' 31.50" 1.000E-01 0.500 F 0.273 0.069 o 691 0.40 Yes No
2018ES2 O C K 2018-03-09.46077 1.000E-05 11:37:33.700 1.500E-01 0.500 F 0.080 -0.031 +17° 44' 14.70" 1.000E-01 0.500 F 0.312 0.111 o 691 0.23 Yes No
2018DH1 O C H 2018-03-09.46457 1.000E-05 11:38:03.100 1.500E-01 0.500 F 0.086 0.031 +08° 26' 44.10" 1.000E-01 0.500 F 0.157 0.047 17.5 R 0.70 0.05 o 691 0.11 Yes Yes
2015XE352 O C 2018-03-09.46614 1.000E-05 11:49:00.010 1.500E-01 0.500 F 0.114 -0.444 +10° 46' 30.90" 1.000E-01 0.500 F 0.180 0.239 19.3 V 0.70 0.45 o 691 1.01 Yes Yes
2018DW3 O C K 2018-03-09.46614 1.000E-05 11:50:37.100 1.500E-01 0.500 F 0.155 -0.006 +11° 14' 43.00" 1.000E-01 0.500 F 0.246 -0.097 o 691 0.20 Yes No
2018BS1 O C K 2018-03-09.46931 1.000E-05 12:28:25.390 1.500E-01 0.500 F 0.182 -0.356 +21° 04' 07.40" 1.000E-01 0.500 F 0.273 0.053 o 691 0.78 Yes No
2018ES2 O C K 2018-03-09.47190 1.000E-05 11:37:31.780 1.500E-01 0.500 F 0.080 -0.357 +17° 43' 58.70" 1.000E-01 0.500 F 0.312 0.242 o 691 0.87 Yes No
2018DH1 O C H 2018-03-09.47571 1.000E-05 11:38:03.820 1.500E-01 0.500 F 0.086 -0.069 +08° 26' 59.30" 1.000E-01 0.500 F 0.157 0.100 17.5 R 0.70 0.06 o 691 0.24 Yes Yes
2015XE352 O C 2018-03-09.47728 1.000E-05 11:48:58.900 1.500E-01 0.500 F 0.114 -0.109 +10° 46' 43.10" 1.000E-01 0.500 F 0.180 0.077 19.5 V 0.70 0.65 o 691 0.27 Yes Yes
2018DW3 O C K 2018-03-09.47728 1.000E-05 11:50:36.230 1.500E-01 0.500 F 0.155 -0.043 +11° 14' 48.30" 1.000E-01 0.500 F 0.246 -0.208 o 691 0.43 Yes No
2018BS1 O C K 2018-03-09.48044 1.000E-05 12:28:25.910 1.500E-01 0.500 F 0.182 0.191 +21° 03' 43.10" 1.000E-01 0.500 F 0.273 -0.135 o 691 0.50 Yes No
2018ES2 O C K 2018-03-09.48303 1.000E-05 11:37:29.920 1.500E-01 0.500 F 0.080 0.094 +17° 43' 41.80" 1.000E-01 0.500 F 0.312 -0.507 o 691 1.04 Yes No
2018DF2 O C K 2018-03-09.49242 1.000E-05 14:53:53.130 1.500E-01 0.500 F 0.084 0.360 +18° 48' 45.10" 1.000E-01 0.500 F 0.270 0.259 o 691 0.91 Yes No
2018DT O C K 2018-03-09.49596 1.000E-05 15:19:08.250 1.500E-01 0.500 F 0.118 0.111 +11° 32' 32.50" 1.000E-01 0.500 F 0.215 -0.200 o 691 0.48 Yes No
2009SK2 O C K 2018-03-09.50366 1.000E-05 15:48:55.580 1.500E-01 0.500 F 0.096 0.012 +00° 41' 45.20" 1.000E-01 0.500 F 0.219 0.146 o 691 0.30 Yes No
2018DF2 O C K 2018-03-09.50706 1.000E-05 14:53:57.570 1.500E-01 0.500 F 0.084 0.271 +18° 49' 48.20" 1.000E-01 0.500 F 0.270 -0.524 o 691 1.20 Yes No
2018DT O C K 2018-03-09.51044 1.000E-05 15:19:14.400 1.500E-01 0.500 F 0.118 0.294 +11° 31' 52.00" 1.000E-01 0.500 F 0.215 0.678 o 691 1.52 Yes No
2009SK2 O C K 2018-03-09.51807 1.000E-05 15:48:56.850 1.500E-01 0.500 F 0.096 -0.023 +00° 41' 15.50" 1.000E-01 0.500 F 0.219 0.004 o 691 0.05 Yes No
2018DF2 O C K 2018-03-09.52143 1.000E-05 14:54:01.970 1.500E-01 0.500 F 0.084 0.687 +18° 50' 51.10" 1.000E-01 0.500 F 0.270 -0.290 o 691 1.51 Yes No
2018BA7 O C H 2018-03-13.16310 1.000E-05 07:25:43.450 1.500E-01 0.500 F -0.037 0.054 +18° 20' 38.20" 1.000E-01 0.500 F 0.184 -0.235 o 691 0.48 Yes No
2018CY O C K 2018-03-13.16460 1.000E-05 07:19:02.430 1.500E-01 0.500 F -0.051 0.365 +05° 53' 55.00" 1.000E-01 0.500 F -0.015 0.271 o 691 0.99 Yes No
2018BA7 O C H 2018-03-13.17432 1.000E-05 07:25:44.510 1.500E-01 0.500 F -0.037 -0.192 +18° 20' 24.80" 1.000E-01 0.500 F 0.184 -0.022 20.2 R 0.70 0.32 o 691 0.39 Yes Yes
2018CY O C K 2018-03-13.17581 1.000E-05 07:18:59.880 1.500E-01 0.500 F -0.051 0.208 +05° 54' 03.70" 1.000E-01 0.500 F -0.015 -0.249 o 691 0.66 Yes No
2018BA7 O C H 2018-03-13.18550 1.000E-05 07:25:45.590 1.500E-01 0.500 F -0.037 -0.107 +18° 20' 11.10" 1.000E-01 0.500 F 0.184 -0.147 20.0 R 0.70 0.12 o 691 0.36 Yes Yes
2018CY O C K 2018-03-13.18702 1.000E-05 07:18:57.340 1.500E-01 0.500 F -0.051 0.140 +05° 54' 12.70" 1.000E-01 0.500 F -0.015 -0.444 o 691 0.95 Yes No
2018CP3 O C K 2018-03-13.20540 1.000E-05 09:51:59.590 1.500E-01 0.500 F 0.085 -0.319 -14° 05' 58.60" 1.000E-01 0.500 F -0.021 0.023 o 691 0.66 Yes No
2018DT1 O C H 2018-03-13.21070 1.000E-05 10:51:06.920 1.500E-01 0.500 F 0.116 0.076 -22° 37' 33.70" 1.000E-01 0.500 F -0.105 0.224 19.6 R 0.70 0.38 o 691 0.50 Yes Yes
2018CP3 O C K 2018-03-13.21641 1.000E-05 09:51:58.060 1.500E-01 0.500 F 0.085 0.343 -14° 06' 18.30" 1.000E-01 0.500 F -0.021 0.232 o 691 0.87 Yes No
2018CP3 O C K 2018-03-13.22736 1.000E-05 09:51:56.480 1.500E-01 0.500 F 0.085 0.157 -14° 06' 38.40" 1.000E-01 0.500 F -0.021 -0.112 o 691 0.40 Yes No
2018DT1 O C H 2018-03-13.23262 1.000E-05 10:50:58.400 1.500E-01 0.500 F 0.116 -0.110 -22° 37' 42.10" 1.000E-01 0.500 F -0.105 -0.222 19.2 R 0.70 -0.03 o 691 0.52 Yes Yes
1999FN19 O C H 2018-03-13.23975 1.000E-05 09:47:25.440 1.500E-01 0.500 F 0.145 -0.087 +07° 16' 53.20" 1.000E-01 0.500 F 0.221 -0.160 o 691 0.37 Yes No
1999FN19 O C H 2018-03-13.25233 1.000E-05 09:47:24.150 1.500E-01 0.500 F 0.145 -0.678 +07° 17' 03.40" 1.000E-01 0.500 F 0.221 -0.708 o 691 1.96 Yes No
1999FN19 O C H 2018-03-13.26459 1.000E-05 09:47:22.970 1.500E-01 0.500 F 0.145 -0.117 +07° 17' 14.60" 1.000E-01 0.500 F 0.221 0.044 19.5 R 0.70 -0.33 o 691 0.25 Yes Yes
2018BY2 O C 2018-03-16.11472 1.000E-05 06:07:55.220 1.500E-01 0.500 F -0.165 -0.853 -18° 33' 08.40" 1.000E-01 0.500 F 0.065 -0.027 o 691 1.71 Yes No
2018BY2 O C 2018-03-16.11627 1.000E-05 06:07:55.560 1.500E-01 0.500 F -0.165 -0.018 -18° 33' 07.30" 1.000E-01 0.500 F 0.065 0.034 o 691 0.08 Yes No
2018BY2 O C 2018-03-16.11784 1.000E-05 06:07:55.830 1.500E-01 0.500 F -0.165 -0.232 -18° 33' 06.20" 1.000E-01 0.500 F 0.065 0.080 o 691 0.49 Yes No
2018CE1 O C K 2018-03-16.12258 1.000E-05 07:50:40.710 1.500E-01 0.500 F -0.038 0.118 +25° 48' 58.50" 1.000E-01 0.500 F 0.195 -0.530 o 691 1.12 Yes No
2018CE1 O C K 2018-03-16.13194 1.000E-05 07:50:43.120 1.500E-01 0.500 F -0.038 -0.328 +25° 48' 57.80" 1.000E-01 0.500 F 0.195 -0.206 o 691 0.90 Yes No
2018CE1 O C K 2018-03-16.14129 1.000E-05 07:50:45.620 1.500E-01 0.500 F -0.038 0.491 +25° 48' 56.80" 1.000E-01 0.500 F 0.195 -0.157 o 691 1.23 Yes No
2018EV1 O C K 2018-03-16.15269 1.000E-05 09:00:31.060 1.500E-01 0.500 F 0.005 -4.179 +25° 19' 08.90" 1.000E-01 0.500 F 0.379 0.324 o 691 7.53 No No
2018EV1 O C K 2018-03-16.16578 1.000E-05 09:00:18.720 1.500E-01 0.500 F 0.005 -2.790 +25° 20' 28.10" 1.000E-01 0.500 F 0.379 -0.571 o 691 5.26 No No
2018AG2 O C K 2018-03-16.18233 1.000E-05 09:27:22.890 1.500E-01 0.500 F 0.059 0.110 +15° 27' 29.30" 1.000E-01 0.500 F 0.359 -0.255 o 691 0.56 Yes No
2018AG2 O C K 2018-03-16.19708 1.000E-05 09:27:22.570 1.500E-01 0.500 F 0.059 -0.111 +15° 27' 49.50" 1.000E-01 0.500 F 0.359 -0.232 o 691 0.52 Yes No
2018ER1 O C K 2018-03-16.22124 1.000E-05 09:50:44.650 1.500E-01 0.500 F 0.071 0.137 -19° 08' 28.50" 1.000E-01 0.500 F -0.117 0.309 o 691 0.69 Yes No
2018ER1 O C K 2018-03-16.22918 1.000E-05 09:50:42.570 1.500E-01 0.500 F 0.071 -1.157 -19° 07' 47.50" 1.000E-01 0.500 F -0.117 -0.343 o 691 2.45 Yes No
2018ER1 O C K 2018-03-16.23712 1.000E-05 09:50:40.620 1.500E-01 0.500 F 0.071 -0.585 -19° 07' 05.20" 1.000E-01 0.500 F -0.117 0.173 o 691 1.23 Yes No
2018EX O C K 2018-03-16.24550 1.000E-05 10:30:35.710 1.500E-01 0.500 F -0.025 0.486 -08° 57' 27.50" 1.000E-01 0.500 F 0.144 -0.380 o 691 1.27 Yes No
2018EX O C K 2018-03-16.25710 1.000E-05 10:30:38.880 1.500E-01 0.500 F -0.025 0.133 -08° 59' 08.50" 1.000E-01 0.500 F 0.144 0.204 o 691 0.50 Yes No
2018EX O C K 2018-03-16.26875 1.000E-05 10:30:42.080 1.500E-01 0.500 F -0.025 0.087 -09° 00' 50.00" 1.000E-01 0.500 F 0.144 0.498 o 691 1.05 Yes No
2018DA4 O C K 2018-03-16.28305 1.000E-05 10:39:24.610 1.500E-01 0.500 F 0.163 -0.992 +20° 50' 33.60" 1.000E-01 0.500 F 0.249 0.043 o 691 2.05 Yes No
2018DA4 O C K 2018-03-16.29258 1.000E-05 10:39:22.450 1.500E-01 0.500 F 0.163 -0.512 +20° 50' 22.30" 1.000E-01 0.500 F 0.249 0.012 o 691 1.06 Yes No
2018DA4 O C K 2018-03-16.30212 1.000E-05 10:39:20.250 1.500E-01 0.500 F 0.163 -0.589 +20° 50' 11.10" 1.000E-01 0.500 F 0.249 0.111 o 691 1.24 Yes No
Zephyr O C 2018-03-16.31746 1.000E-05 11:41:26.170 1.500E-01 0.500 F 0.315 -0.259 +03° 09' 28.70" 1.000E-01 0.500 F 0.406 -0.090 o 691 0.55 Yes No
Zephyr O C 2018-03-16.32469 1.000E-05 11:41:25.600 1.500E-01 0.500 F 0.315 -0.488 +03° 09' 33.60" 1.000E-01 0.500 F 0.406 0.355 o 691 1.21 Yes No
Zephyr O C 2018-03-16.33195 1.000E-05 11:41:25.060 1.500E-01 0.500 F 0.315 -0.235 +03° 09' 37.00" 1.000E-01 0.500 F 0.406 -0.719 o 691 1.51 Yes No
2018EM2 O C 2018-03-16.34171 1.000E-05 11:40:35.750 1.500E-01 0.500 F 0.065 0.067 +23° 15' 36.60" 1.000E-01 0.500 F 0.192 -0.121 o 691 0.28 Yes No
2018EM2 O C 2018-03-16.34985 1.000E-05 11:40:35.020 1.500E-01 0.500 F 0.065 -0.211 +23° 15' 43.30" 1.000E-01 0.500 F 0.192 -0.163 o 691 0.54 Yes No
2018EM2 O C 2018-03-16.35800 1.000E-05 11:40:34.310 1.500E-01 0.500 F 0.065 -0.209 +23° 15' 50.30" 1.000E-01 0.500 F 0.192 0.102 o 691 0.47 Yes No
2018EY3 O C K 2018-03-16.36606 1.000E-05 11:46:17.170 1.500E-01 0.500 F 0.253 -0.023 +28° 25' 27.70" 1.000E-01 0.500 F 0.265 -0.212 o 691 0.43 Yes No
2018EY3 O C K 2018-03-16.37541 1.000E-05 11:46:16.880 1.500E-01 0.500 F 0.253 -0.518 +28° 25' 58.70" 1.000E-01 0.500 F 0.265 0.342 o 691 1.25 Yes No
2018EY3 O C K 2018-03-16.38473 1.000E-05 11:46:16.690 1.500E-01 0.500 F 0.253 0.247 +28° 26' 29.20" 1.000E-01 0.500 F 0.265 0.548 o 691 1.22 Yes No
2018DX3 O C H 2018-03-16.40029 1.000E-05 12:37:07.650 1.500E-01 0.500 F 0.033 0.008 +10° 24' 03.10" 1.000E-01 0.500 F 0.297 -0.031 18.1 R 0.70 0.17 o 691 0.06 Yes Yes
2018DX3 O C H 2018-03-16.40360 1.000E-05 12:37:07.650 1.500E-01 0.500 F 0.033 -0.004 +10° 24' 00.50" 1.000E-01 0.500 F 0.297 0.107 18.2 R 0.70 0.27 o 691 0.22 Yes Yes
2018DX3 O C H 2018-03-16.40692 1.000E-05 12:37:07.650 1.500E-01 0.500 F 0.033 -0.020 +10° 23' 57.60" 1.000E-01 0.500 F 0.297 -0.044 18.1 R 0.70 0.17 o 691 0.10 Yes Yes
2018EW3 O C 2018-03-17.31705 1.000E-05 10:22:13.700 1.500E-01 0.500 F 0.164 -0.427 +05° 19' 09.00" 1.000E-01 0.500 F 0.121 -0.200 20.5 R 0.70 0.40 o 691 0.97 Yes Yes
2018EW3 O C 2018-03-17.32165 1.000E-05 10:22:14.910 1.500E-01 0.500 F 0.164 -0.001 +05° 19' 26.70" 1.000E-01 0.500 F 0.121 0.554 20.8 R 0.70 0.70 o 691 1.13 Yes Yes
2018EW3 O C 2018-03-17.32510 1.000E-05 10:22:15.790 1.500E-01 0.500 F 0.164 -0.105 +05° 19' 39.20" 1.000E-01 0.500 F 0.121 0.348 20.4 R 0.70 0.30 o 691 0.74 Yes Yes
2018EM2 O C 2018-03-17.33843 1.000E-05 11:39:14.850 1.500E-01 0.500 F 0.065 -0.307 +23° 29' 22.30" 1.000E-01 0.500 F 0.192 -0.117 20.3 R 0.70 0.05 o 691 0.66 Yes Yes
2018EM2 O C 2018-03-17.34222 1.000E-05 11:39:14.520 1.500E-01 0.500 F 0.065 -0.187 +23° 29' 25.80" 1.000E-01 0.500 F 0.192 0.302 20.4 R 0.70 0.15 o 691 0.71 Yes Yes
2018EM2 O C 2018-03-17.34791 1.000E-05 11:39:14.030 1.500E-01 0.500 F 0.065 0.065 +23° 29' 30.10" 1.000E-01 0.500 F 0.192 -0.016 19.9 R 0.70 -0.35 o 691 0.13 Yes Yes
2009HD21 O C K 2018-03-17.35738 1.000E-05 12:08:18.930 1.500E-01 0.500 F 0.219 0.251 -00° 27' 29.40" 1.000E-01 0.500 F 0.306 -0.048 o 691 0.52 Yes No
2009HD21 O C K 2018-03-17.36584 1.000E-05 12:08:18.440 1.500E-01 0.500 F 0.219 1.031 -00° 27' 23.50" 1.000E-01 0.500 F 0.306 -0.178 o 691 2.13 Yes No
2009HD21 O C K 2018-03-17.37430 1.000E-05 12:08:17.810 1.500E-01 0.500 F 0.219 -0.291 -00° 27' 17.50" 1.000E-01 0.500 F 0.306 -0.209 o 691 0.73 Yes No
2018EZ O C 2018-03-17.39953 1.000E-05 11:38:45.750 1.500E-01 0.500 F 0.063 0.101 +29° 34' 39.50" 1.000E-01 0.500 F 0.285 -0.147 19.2 R 0.70 0.04 o 691 0.37 Yes Yes
2018EZ O C 2018-03-17.40160 1.000E-05 11:38:45.890 1.500E-01 0.500 F 0.063 -0.558 +29° 34' 21.40" 1.000E-01 0.500 F 0.285 -0.059 18.8 R 0.70 -0.36 o 691 1.14 Yes Yes
2018EZ O C 2018-03-17.40369 1.000E-05 11:38:46.130 1.500E-01 0.500 F 0.063 0.055 +29° 34' 02.90" 1.000E-01 0.500 F 0.285 -0.188 19.8 R 0.70 0.64 o 691 0.40 Yes Yes
2018EY3 O C K 2018-03-17.42936 1.000E-05 11:46:06.820 1.500E-01 0.500 F 0.253 0.088 +29° 24' 45.40" 1.000E-01 0.500 F 0.328 -0.051 o 691 0.21 Yes No
2018EY3 O C K 2018-03-17.43461 1.000E-05 11:46:06.680 1.500E-01 0.500 F 0.253 -0.082 +29° 25' 02.60" 1.000E-01 0.500 F 0.328 -0.259 o 691 0.55 Yes No
2018EY3 O C K 2018-03-17.43986 1.000E-05 11:46:06.550 1.500E-01 0.500 F 0.253 -0.152 +29° 25' 20.00" 1.000E-01 0.500 F 0.328 -0.252 o 691 0.60 Yes No
2018EW1 O C K 2018-03-17.44572 1.000E-05 11:11:06.320 1.500E-01 0.500 F 0.086 0.279 +04° 41' 08.60" 1.000E-01 0.500 F 0.137 0.045 o 691 0.57 Yes No
2018EW1 O C K 2018-03-17.44813 1.000E-05 11:11:06.830 1.500E-01 0.500 F 0.086 0.079 +04° 41' 16.00" 1.000E-01 0.500 F 0.137 0.160 o 691 0.36 Yes No
2018EW1 O C K 2018-03-17.45055 1.000E-05 11:11:07.390 1.500E-01 0.500 F 0.086 0.571 +04° 41' 23.40" 1.000E-01 0.500 F 0.137 0.248 o 691 1.26 Yes No
2018DT O C K 2018-03-17.45691 1.000E-05 16:07:41.960 1.500E-01 0.500 F 0.222 -0.454 +07° 16' 44.80" 1.000E-01 0.500 F 0.246 -0.310 o 691 1.15 Yes No
2018DT O C K 2018-03-17.46652 1.000E-05 16:07:42.990 1.500E-01 0.500 F 0.222 -0.319 +07° 16' 33.00" 1.000E-01 0.500 F 0.246 -0.130 19.4 R 0.70 -1.85 o 691 0.72 Yes Yes
2018DT O C K 2018-03-17.47611 1.000E-05 16:07:44.010 1.500E-01 0.500 F 0.222 -0.103 +07° 16' 21.30" 1.000E-01 0.500 F 0.246 0.232 19.5 R 0.70 -1.75 o 691 0.53 Yes Yes
2018DW3 O C K 2018-03-17.49008 1.000E-05 11:40:43.690 1.500E-01 0.500 F 0.061 -0.601 +12° 13' 29.90" 1.000E-01 0.500 F 0.257 -1.320 o 691 2.92 Yes No

[1-200] [201-400] [401-600] [601-800] [801-1000] [1001-1200] [1201-1400] [1401-1600] [1601-1800] [1801-2000] [2001-2200] [2201-2400] [2401-2600] [2601-2800] [2801-3000] [3001-3200] [3201-3400] [3401-3600] [3601-3800] [3801-4000] [4001-4200] [4201-4400] [4401-4600] [4601-4800] [4801-5000] [5001-5200] [5201-5400] [5401-5600] [5601-5800] [5801-6000] [6001-6200] [6201-6400] [6401-6600] [6601-6800] [6801-7000] [7001-7200] [7201-7400] [7401-7600] [7601-7800] [7801-8000] [8001-8200] [8201-8400] [8401-8600] [8601-8800] [8801-9000] [9001-9200] [9201-9400] [9401-9600] [9601-9800] [9801-10000] [10001-10200] [10201-10400] [10401-10600] [10601-10800] [10801-11000] [11001-11200] [11201-11400] [11401-11600] [11601-11800] [11801-12000] [12001-12200] [12201-12400] [12401-12600] [12601-12800] [12801-13000] [13001-13200] [13201-13400] [13401-13600] [13601-13800] [13801-14000] [14001-14200] [14201-14400] [14401-14600] [14601-14800] [14801-15000] [15001-15200] [15201-15400] [15401-15600] [15601-15800] [15801-16000] [16001-16200] [16201-16400] [16401-16600] [16601-16800] [16801-17000] [17001-17200] [17201-17400] [17401-17600] [17601-17800] [17801-18000] [18001-18200] [18201-18400] [18401-18600] [18601-18800] [18801-19000] [19001-19200] [19201-19400] [19401-19600] [19601-19800] [19801-20000] [20001-20200] [20201-20400] [20401-20600] [20601-20800] [20801-21000] [21001-21200] [21201-21400] [21401-21600] [21601-21800] [21801-22000] [22001-22200] [22201-22400] [22401-22600] [22601-22800] [22801-23000] [23001-23200] [23201-23400] [23401-23600] [23601-23800] [23801-24000] [24001-24200] [24201-24400] [24401-24600] [24601-24800] [24801-25000] [25001-25200] [25201-25400] [25401-25600] [25601-25800] [25801-26000] [26001-26200] [26201-26400] [26401-26600] [26601-26800] [26801-27000] [27001-27200] [27201-27400] [27401-27600] [27601-27800] [27801-28000] [28001-28200] [28201-28400] [28401-28600] [28601-28800] [28801-29000] [29001-29200] [29201-29400] [29401-29600] [29601-29800] [29801-30000] [30001-30200] [30201-30400] [30401-30600] [30601-30800] [30801-31000] [31001-31200] [31201-31400] [31401-31600] [31601-31800] [31801-32000] [32001-32200] [32201-32400] [32401-32600] [32601-32800] [32801-33000] [33001-33200] [33201-33400] [33401-33600] [33601-33800] [33801-34000] [34001-34200] [34201-34400] [34401-34600] [34601-34800] [34801-35000] [35001-35200] [35201-35400] [35401-35600] [35601-35800] [35801-36000] [36001-36200] [36201-36400] [36401-36600] [36601-36800] [36801-37000] [37001-37200] [37201-37400] [37401-37600] [37601-37800] [37801-38000] [38001-38200] [38201-38400] [38401-38600] [38601-38800] [38801-39000] [39001-39200] [39201-39400] [39401-39600] [39601-39800] [39801-40000] [40001-40200] [40201-40400] [40401-40600] [40601-40800] [40801-41000] [41001-41200] [41201-41400] [41401-41600] [41601-41800] [41801-42000] [42001-42200] [42201-42400] [42401-42600] [42601-42800] [42801-43000] [43001-43200] [43201-43400] [43401-43600] [43601-43800] [43801-44000] [44001-44200] [44201-44400] [44401-44600] [44601-44800] [44801-45000] [45001-45200] [45201-45400] [45401-45600] [45601-45800] [45801-46000] [46001-46200] [46201-46400] [46401-46600] [46601-46800] [46801-47000] [47001-47200] [47201-47400] [47401-47600] [47601-47800] [47801-48000] [48001-48200] [48201-48400] [48401-48600] [48601-48800] [48801-49000] [49001-49200] [49201-49400] [49401-49600] [49601-49800] [49801-50000] [50001-50200] [50201-50388]